sensor_id;sensor_type;location;lat;lon;timestamp;pressure;altitude;pressure_sealevel;temperature;humidity
57990;BME280;58373;51.824;5.564;2023-10-13T00:00:25;101100.94;;;16.05;100.00
57990;BME280;58373;51.824;5.564;2023-10-13T00:02:51;101103.53;;;16.05;100.00
57990;BME280;58373;51.824;5.564;2023-10-13T00:05:17;101107.16;;;16.04;100.00
57990;BME280;58373;51.824;5.564;2023-10-13T00:07:42;101098.63;;;16.02;100.00
57990;BME280;58373;51.824;5.564;2023-10-13T00:10:08;101104.53;;;16.04;100.00
57990;BME280;58373;51.824;5.564;2023-10-13T00:12:43;101096.84;;;16.02;100.00
57990;BME280;58373;51.824;5.564;2023-10-13T00:15:14;101095.69;;;16.05;100.00
57990;BME280;58373;51.824;5.564;2023-10-13T00:17:40;101095.69;;;16.05;100.00
57990;BME280;58373;51.824;5.564;2023-10-13T00:20:07;101078.38;;;16.04;100.00
57990;BME280;58373;51.824;5.564;2023-10-13T00:22:52;101086.22;;;16.04;100.00
57990;BME280;58373;51.824;5.564;2023-10-13T00:25:17;101072.31;;;16.03;100.00
57990;BME280;58373;51.824;5.564;2023-10-13T00:27:51;101066.25;;;16.03;100.00
57990;BME280;58373;51.824;5.564;2023-10-13T00:30:17;101068.88;;;16.03;100.00
57990;BME280;58373;51.824;5.564;2023-10-13T00:32:48;101076.72;;;16.03;100.00
57990;BME280;58373;51.824;5.564;2023-10-13T00:35:17;101076.72;;;16.03;100.00
57990;BME280;58373;51.824;5.564;2023-10-13T00:38:01;101069.84;;;16.02;100.00
57990;BME280;58373;51.824;5.564;2023-10-13T00:40:37;101064.63;;;16.02;100.00
57990;BME280;58373;51.824;5.564;2023-10-13T00:43:02;101059.41;;;16.02;100.00
57990;BME280;58373;51.824;5.564;2023-10-13T00:48:33;101057.75;;;16.01;100.00
57990;BME280;58373;51.824;5.564;2023-10-13T00:51:00;101048.25;;;16.00;100.00
57990;BME280;58373;51.824;5.564;2023-10-13T00:53:28;101051.72;;;16.00;100.00
57990;BME280;58373;51.824;5.564;2023-10-13T00:55:54;101056.09;;;16.00;100.00
57990;BME280;58373;51.824;5.564;2023-10-13T00:58:22;101042.06;;;16.01;100.00
57990;BME280;58373;51.824;5.564;2023-10-13T01:00:49;101042.88;;;16.01;100.00
57990;BME280;58373;51.824;5.564;2023-10-13T01:03:21;101042.88;;;16.01;100.00
57990;BME280;58373;51.824;5.564;2023-10-13T01:05:50;101042.06;;;16.01;100.00
57990;BME280;58373;51.824;5.564;2023-10-13T01:08:19;101038.47;;;16.02;100.00
57990;BME280;58373;51.824;5.564;2023-10-13T01:10:45;101033.22;;;16.02;100.00
57990;BME280;58373;51.824;5.564;2023-10-13T01:13:10;101031.59;;;16.01;100.00
57990;BME280;58373;51.824;5.564;2023-10-13T01:15:36;101020.97;;;16.02;100.00
57990;BME280;58373;51.824;5.564;2023-10-13T01:18:10;101015.91;;;16.01;100.00
57990;BME280;58373;51.824;5.564;2023-10-13T01:20:37;101018.50;;;16.01;100.00
57990;BME280;58373;51.824;5.564;2023-10-13T01:23:10;101014.22;;;16.00;100.00
57990;BME280;58373;51.824;5.564;2023-10-13T01:25:43;101010.66;;;16.01;100.00
57990;BME280;58373;51.824;5.564;2023-10-13T01:28:08;101003.75;;;16.00;100.00
57990;BME280;58373;51.824;5.564;2023-10-13T01:30:34;101008.19;;;15.99;100.00
57990;BME280;58373;51.824;5.564;2023-10-13T01:33:03;101007.38;;;15.99;100.00
57990;BME280;58373;51.824;5.564;2023-10-13T01:35:28;101003.13;;;15.98;100.00
57990;BME280;58373;51.824;5.564;2023-10-13T01:38:01;100994.44;;;15.97;100.00
57990;BME280;58373;51.824;5.564;2023-10-13T01:40:26;100993.63;;;15.97;100.00
57990;BME280;58373;51.824;5.564;2023-10-13T01:42:54;100988.56;;;15.95;100.00
57990;BME280;58373;51.824;5.564;2023-10-13T01:45:20;100988.69;;;15.93;100.00
57990;BME280;58373;51.824;5.564;2023-10-13T01:47:45;100991.31;;;15.93;100.00
57990;BME280;58373;51.824;5.564;2023-10-13T01:50:11;100995.88;;;15.91;100.00
57990;BME280;58373;51.824;5.564;2023-10-13T01:52:57;100989.84;;;15.91;100.00
57990;BME280;58373;51.824;5.564;2023-10-13T01:55:40;100980.19;;;15.91;100.00
57990;BME280;58373;51.824;5.564;2023-10-13T01:58:17;100980.19;;;15.91;100.00
57990;BME280;58373;51.824;5.564;2023-10-13T02:00:47;100970.72;;;15.90;100.00
57990;BME280;58373;51.824;5.564;2023-10-13T02:03:13;100970.88;;;15.89;100.00
57990;BME280;58373;51.824;5.564;2023-10-13T02:05:45;100965.66;;;15.89;100.00
57990;BME280;58373;51.824;5.564;2023-10-13T02:08:17;100963.97;;;15.88;100.00
57990;BME280;58373;51.824;5.564;2023-10-13T02:10:47;100963.16;;;15.87;100.00
57990;BME280;58373;51.824;5.564;2023-10-13T02:13:13;100962.34;;;15.87;100.00
57990;BME280;58373;51.824;5.564;2023-10-13T02:15:45;100952.69;;;15.87;100.00
57990;BME280;58373;51.824;5.564;2023-10-13T02:18:16;100945.84;;;15.86;100.00
57990;BME280;58373;51.824;5.564;2023-10-13T02:20:55;100939.63;;;15.87;100.00
57990;BME280;58373;51.824;5.564;2023-10-13T02:23:24;100933.75;;;15.85;100.00
57990;BME280;58373;51.824;5.564;2023-10-13T02:25:55;100936.34;;;15.85;100.00
57990;BME280;58373;51.824;5.564;2023-10-13T02:28:28;100926.88;;;15.84;100.00
57990;BME280;58373;51.824;5.564;2023-10-13T02:31:01;100926.88;;;15.84;100.00
57990;BME280;58373;51.824;5.564;2023-10-13T02:33:28;100918.06;;;15.85;100.00
57990;BME280;58373;51.824;5.564;2023-10-13T02:35:58;100923.28;;;15.85;100.00
57990;BME280;58373;51.824;5.564;2023-10-13T02:38:23;100922.47;;;15.85;100.00
57990;BME280;58373;51.824;5.564;2023-10-13T02:41:12;100908.72;;;15.83;100.00
57990;BME280;58373;51.824;5.564;2023-10-13T02:43:44;100904.31;;;15.83;100.00
57990;BME280;58373;51.824;5.564;2023-10-13T02:46:09;100909.56;;;15.83;100.00
57990;BME280;58373;51.824;5.564;2023-10-13T02:48:34;100893.84;;;15.83;100.00
57990;BME280;58373;51.824;5.564;2023-10-13T02:51:07;100894.00;;;15.82;100.00
57990;BME280;58373;51.824;5.564;2023-10-13T02:53:42;100890.56;;;15.81;100.00
57990;BME280;58373;51.824;5.564;2023-10-13T02:56:07;100888.94;;;15.80;100.00
57990;BME280;58373;51.824;5.564;2023-10-13T02:58:32;100887.28;;;15.79;100.00
57990;BME280;58373;51.824;5.564;2023-10-13T03:01:07;100876.00;;;15.79;100.00
57990;BME280;58373;51.824;5.564;2023-10-13T03:03:45;100863.75;;;15.79;100.00
57990;BME280;58373;51.824;5.564;2023-10-13T03:06:16;100864.75;;;15.78;100.00
57990;BME280;58373;51.824;5.564;2023-10-13T03:08:41;100849.34;;;15.75;100.00
57990;BME280;58373;51.824;5.564;2023-10-13T03:11:08;100847.25;;;15.79;100.00
57990;BME280;58373;51.824;5.564;2023-10-13T03:13:34;100842.19;;;15.77;100.00
57990;BME280;58373;51.824;5.564;2023-10-13T03:16:00;100827.31;;;15.78;100.00
57990;BME280;58373;51.824;5.564;2023-10-13T03:18:25;100836.97;;;15.77;100.00
57990;BME280;58373;51.824;5.564;2023-10-13T03:20:51;100831.72;;;15.77;100.00
57990;BME280;58373;51.824;5.564;2023-10-13T03:23:24;100827.44;;;15.76;100.00
57990;BME280;58373;51.824;5.564;2023-10-13T03:25:49;100823.19;;;15.75;100.00
57990;BME280;58373;51.824;5.564;2023-10-13T03:28:15;100824.84;;;15.76;100.00
57990;BME280;58373;51.824;5.564;2023-10-13T03:30:42;100823.19;;;15.75;100.00
57990;BME280;58373;51.824;5.564;2023-10-13T03:33:08;100812.75;;;15.75;100.00
57990;BME280;58373;51.824;5.564;2023-10-13T03:35:39;100809.13;;;15.76;100.00
57990;BME280;58373;51.824;5.564;2023-10-13T03:38:06;100797.06;;;15.75;100.00
57990;BME280;58373;51.824;5.564;2023-10-13T03:40:45;100797.06;;;15.75;100.00
57990;BME280;58373;51.824;5.564;2023-10-13T03:43:42;100790.03;;;15.76;100.00
57990;BME280;58373;51.824;5.564;2023-10-13T03:46:10;100799.50;;;15.77;100.00
57990;BME280;58373;51.824;5.564;2023-10-13T03:48:35;100785.59;;;15.76;100.00
57990;BME280;58373;51.824;5.564;2023-10-13T03:51:20;100782.19;;;15.76;100.00
57990;BME280;58373;51.824;5.564;2023-10-13T03:53:46;100771.72;;;15.76;100.00
57990;BME280;58373;51.824;5.564;2023-10-13T03:56:18;100760.44;;;15.75;100.00
57990;BME280;58373;51.824;5.564;2023-10-13T03:58:51;100743.13;;;15.74;100.00
57990;BME280;58373;51.824;5.564;2023-10-13T04:01:19;100764.84;;;15.75;100.00
57990;BME280;58373;51.824;5.564;2023-10-13T04:03:49;100742.13;;;15.75;100.00
57990;BME280;58373;51.824;5.564;2023-10-13T04:06:28;100735.09;;;15.76;100.00
57990;BME280;58373;51.824;5.564;2023-10-13T04:09:14;100725.47;;;15.76;100.00
57990;BME280;58373;51.824;5.564;2023-10-13T04:11:55;100713.06;;;15.78;100.00
57990;BME280;58373;51.824;5.564;2023-10-13T04:14:26;100709.47;;;15.79;100.00
57990;BME280;58373;51.824;5.564;2023-10-13T04:17:10;100711.09;;;15.80;100.00
57990;BME280;58373;51.824;5.564;2023-10-13T04:19:49;100700.63;;;15.80;100.00
57990;BME280;58373;51.824;5.564;2023-10-13T04:22:36;100698.00;;;15.80;100.00
57990;BME280;58373;51.824;5.564;2023-10-13T04:25:11;100697.03;;;15.81;100.00
57990;BME280;58373;51.824;5.564;2023-10-13T04:27:55;100683.81;;;15.83;100.00
57990;BME280;58373;51.824;5.564;2023-10-13T04:33:20;100669.75;;;15.84;100.00
57990;BME280;58373;51.824;5.564;2023-10-13T04:36:01;100660.91;;;15.85;100.00
57990;BME280;58373;51.824;5.564;2023-10-13T04:38:32;100659.75;;;15.87;100.00
57990;BME280;58373;51.824;5.564;2023-10-13T04:41:20;100651.78;;;15.89;100.00
57990;BME280;58373;51.824;5.564;2023-10-13T04:43:48;100649.63;;;15.92;100.00
57990;BME280;58373;51.824;5.564;2023-10-13T04:46:20;100645.88;;;15.95;100.00
57990;BME280;58373;51.824;5.564;2023-10-13T04:49:04;100651.59;;;15.99;100.00
57990;BME280;58373;51.824;5.564;2023-10-13T04:51:35;100647.66;;;16.03;100.00
57990;BME280;58373;51.824;5.564;2023-10-13T04:54:24;100648.16;;;16.06;100.00
57990;BME280;58373;51.824;5.564;2023-10-13T04:56:58;100649.44;;;16.10;100.00
57990;BME280;58373;51.824;5.564;2023-10-13T04:59:42;100641.13;;;16.15;100.00
57990;BME280;58373;51.824;5.564;2023-10-13T05:02:26;100648.47;;;16.19;100.00
57990;BME280;58373;51.824;5.564;2023-10-13T05:05:01;100651.59;;;16.23;100.00
57990;BME280;58373;51.824;5.564;2023-10-13T05:07:45;100647.81;;;16.26;100.00
57990;BME280;58373;51.824;5.564;2023-10-13T05:10:29;100639.47;;;16.30;100.00
57990;BME280;58373;51.824;5.564;2023-10-13T05:13:14;100645.16;;;16.34;100.00
57990;BME280;58373;51.824;5.564;2023-10-13T05:15:58;100640.41;;;16.37;100.00
57990;BME280;58373;51.824;5.564;2023-10-13T05:18:41;100638.44;;;16.39;100.00
57990;BME280;58373;51.824;5.564;2023-10-13T05:21:26;100628.63;;;16.41;100.00
57990;BME280;58373;51.824;5.564;2023-10-13T05:24:09;100634.19;;;16.46;100.00
57990;BME280;58373;51.824;5.564;2023-10-13T05:26:54;100632.53;;;16.45;100.00
57990;BME280;58373;51.824;5.564;2023-10-13T05:29:38;100623.38;;;16.50;100.00
57990;BME280;58373;51.824;5.564;2023-10-13T05:32:22;100607.34;;;16.53;100.00
57990;BME280;58373;51.824;5.564;2023-10-13T05:35:06;100596.88;;;16.53;100.00
57990;BME280;58373;51.824;5.564;2023-10-13T05:37:50;100594.88;;;16.55;100.00
57990;BME280;58373;51.824;5.564;2023-10-13T05:40:34;100595.69;;;16.55;100.00
57990;BME280;58373;51.824;5.564;2023-10-13T05:43:18;100596.50;;;16.56;100.00
57990;BME280;58373;51.824;5.564;2023-10-13T05:46:02;100602.41;;;16.58;100.00
57990;BME280;58373;51.824;5.564;2023-10-13T05:48:46;100603.38;;;16.57;100.00
57990;BME280;58373;51.824;5.564;2023-10-13T05:51:24;100603.38;;;16.57;100.00
57990;BME280;58373;51.824;5.564;2023-10-13T05:53:59;100601.41;;;16.59;100.00
57990;BME280;58373;51.824;5.564;2023-10-13T05:59:26;100597.81;;;16.60;100.00
57990;BME280;58373;51.824;5.564;2023-10-13T06:02:10;100576.69;;;16.61;100.00
57990;BME280;58373;51.824;5.564;2023-10-13T06:04:54;100581.09;;;16.61;100.00
57990;BME280;58373;51.824;5.564;2023-10-13T06:07:38;100593.22;;;16.62;100.00
57990;BME280;58373;51.824;5.564;2023-10-13T06:10:22;100583.72;;;16.61;100.00
57990;BME280;58373;51.824;5.564;2023-10-13T06:13:06;100596.63;;;16.62;100.00
57990;BME280;58373;51.824;5.564;2023-10-13T06:15:50;100585.34;;;16.62;100.00
57990;BME280;58373;51.824;5.564;2023-10-13T06:18:34;100586.16;;;16.62;100.00
57990;BME280;58373;51.824;5.564;2023-10-13T06:21:19;100580.94;;;16.62;100.00
57990;BME280;58373;51.824;5.564;2023-10-13T06:24:03;100580.78;;;16.64;100.00
57990;BME280;58373;51.824;5.564;2023-10-13T06:26:47;100570.94;;;16.66;100.00
57990;BME280;58373;51.824;5.564;2023-10-13T06:29:31;100564.72;;;16.67;100.00
57990;BME280;58373;51.824;5.564;2023-10-13T06:31:56;100561.28;;;16.66;100.00
57990;BME280;58373;51.824;5.564;2023-10-13T06:34:23;100568.13;;;16.67;100.00
57990;BME280;58373;51.824;5.564;2023-10-13T06:37:02;100563.72;;;16.68;100.00
57990;BME280;58373;51.824;5.564;2023-10-13T06:39:27;100565.38;;;16.69;100.00
57990;BME280;58373;51.824;5.564;2023-10-13T06:42:02;100551.28;;;16.70;100.00
57990;BME280;58373;51.824;5.564;2023-10-13T06:44:28;100552.94;;;16.71;100.00
57990;BME280;58373;51.824;5.564;2023-10-13T06:46:57;100550.16;;;16.72;100.00
57990;BME280;58373;51.824;5.564;2023-10-13T06:49:22;100544.09;;;16.72;100.00
57990;BME280;58373;51.824;5.564;2023-10-13T06:51:48;100545.72;;;16.73;100.00
57990;BME280;58373;51.824;5.564;2023-10-13T06:54:13;100540.47;;;16.73;100.00
57990;BME280;58373;51.824;5.564;2023-10-13T06:56:45;100533.63;;;16.72;100.00
57990;BME280;58373;51.824;5.564;2023-10-13T06:59:11;100535.25;;;16.73;100.00
57990;BME280;58373;51.824;5.564;2023-10-13T07:01:39;100523.16;;;16.72;100.00
57990;BME280;58373;51.824;5.564;2023-10-13T07:04:08;100525.09;;;16.70;100.00
57990;BME280;58373;51.824;5.564;2023-10-13T07:06:43;100532.00;;;16.71;100.00
57990;BME280;58373;51.824;5.564;2023-10-13T07:09:18;100526.75;;;16.71;100.00
57990;BME280;58373;51.824;5.564;2023-10-13T07:11:59;100526.09;;;16.69;100.00
57990;BME280;58373;51.824;5.564;2023-10-13T07:14:26;100517.41;;;16.68;100.00
57990;BME280;58373;51.824;5.564;2023-10-13T07:16:55;100515.63;;;16.69;100.00
57990;BME280;58373;51.824;5.564;2023-10-13T07:19:23;100509.38;;;16.70;100.00
57990;BME280;58373;51.824;5.564;2023-10-13T07:21:50;100510.22;;;16.70;100.00
57990;BME280;58373;51.824;5.564;2023-10-13T07:24:23;100495.34;;;16.71;100.00
57990;BME280;58373;51.824;5.564;2023-10-13T07:26:49;100496.97;;;16.72;100.00
57990;BME280;58373;51.824;5.564;2023-10-13T07:29:22;100488.09;;;16.73;100.00
57990;BME280;58373;51.824;5.564;2023-10-13T07:31:49;100484.50;;;16.74;100.00
57990;BME280;58373;51.824;5.564;2023-10-13T07:34:15;100480.91;;;16.75;100.00
57990;BME280;58373;51.824;5.564;2023-10-13T07:36:54;100493.00;;;16.76;100.00
57990;BME280;58373;51.824;5.564;2023-10-13T07:39:28;100484.16;;;16.77;100.00
57990;BME280;58373;51.824;5.564;2023-10-13T07:42:01;100481.38;;;16.79;100.00
57990;BME280;58373;51.824;5.564;2023-10-13T07:44:30;100474.16;;;16.81;100.00
57990;BME280;58373;51.824;5.564;2023-10-13T07:46:59;100476.59;;;16.82;100.00
57990;BME280;58373;51.824;5.564;2023-10-13T07:49:43;100473.00;;;16.83;100.00
57990;BME280;58373;51.824;5.564;2023-10-13T07:52:08;100471.00;;;16.85;100.00
57990;BME280;58373;51.824;5.564;2023-10-13T07:54:47;100469.84;;;16.88;100.00
57990;BME280;58373;51.824;5.564;2023-10-13T07:57:21;100484.38;;;16.90;100.00
57990;BME280;58373;51.824;5.564;2023-10-13T07:59:54;100470.97;;;16.93;100.00
57990;BME280;58373;51.824;5.564;2023-10-13T08:02:31;100468.97;;;16.95;100.00
57990;BME280;58373;51.824;5.564;2023-10-13T08:05:15;100464.38;;;16.97;100.00
57990;BME280;58373;51.824;5.564;2023-10-13T08:07:50;100462.41;;;16.99;100.00
57990;BME280;58373;51.824;5.564;2023-10-13T08:10:20;100464.03;;;17.01;100.00
57990;BME280;58373;51.824;5.564;2023-10-13T08:12:51;100456.44;;;17.06;100.00
57990;BME280;58373;51.824;5.564;2023-10-13T08:15:20;100461.31;;;17.09;100.00
57990;BME280;58373;51.824;5.564;2023-10-13T08:17:57;100466.84;;;17.14;100.00
57990;BME280;58373;51.824;5.564;2023-10-13T08:20:24;100453.41;;;17.17;100.00
57990;BME280;58373;51.824;5.564;2023-10-13T08:22:51;100464.00;;;17.23;100.00
57990;BME280;58373;51.824;5.564;2023-10-13T08:25:35;100457.22;;;17.29;100.00
57990;BME280;58373;51.824;5.564;2023-10-13T08:28:20;100443.59;;;17.34;100.00
57990;BME280;58373;51.824;5.564;2023-10-13T08:31:05;100454.19;;;17.40;100.00
57990;BME280;58373;51.824;5.564;2023-10-13T08:33:47;100439.72;;;17.44;100.00
57990;BME280;58373;51.824;5.564;2023-10-13T08:36:12;100441.44;;;17.52;100.00
57990;BME280;58373;51.824;5.564;2023-10-13T08:38:54;100439.91;;;17.58;100.00
57990;BME280;58373;51.824;5.564;2023-10-13T08:41:20;100442.44;;;17.66;100.00
57990;BME280;58373;51.824;5.564;2023-10-13T08:43:49;100442.44;;;17.66;100.00
57990;BME280;58373;51.824;5.564;2023-10-13T08:46:18;100443.91;;;17.68;100.00
57990;BME280;58373;51.824;5.564;2023-10-13T08:48:54;100432.91;;;17.73;100.00
57990;BME280;58373;51.824;5.564;2023-10-13T08:51:33;100414.97;;;17.76;100.00
57990;BME280;58373;51.824;5.564;2023-10-13T08:54:09;100425.09;;;17.80;100.00
57990;BME280;58373;51.824;5.564;2023-10-13T08:56:44;100403.94;;;17.81;100.00
57990;BME280;58373;51.824;5.564;2023-10-13T08:59:19;100424.19;;;17.87;100.00
57990;BME280;58373;51.824;5.564;2023-10-13T09:01:48;100427.47;;;17.89;100.00
57990;BME280;58373;51.824;5.564;2023-10-13T09:04:16;100418.59;;;17.90;100.00
57990;BME280;58373;51.824;5.564;2023-10-13T09:06:52;100416.25;;;17.95;100.00
57990;BME280;58373;51.824;5.564;2023-10-13T09:09:34;100424.34;;;18.00;100.00
57990;BME280;58373;51.824;5.564;2023-10-13T09:12:20;100417.94;;;18.03;100.00
57990;BME280;58373;51.824;5.564;2023-10-13T09:14:53;100405.28;;;18.07;100.00
57990;BME280;58373;51.824;5.564;2023-10-13T09:17:30;100420.00;;;18.08;100.00
57990;BME280;58373;51.824;5.564;2023-10-13T09:19:58;100414.38;;;18.11;100.00
57990;BME280;58373;51.824;5.564;2023-10-13T09:22:28;100407.50;;;18.10;100.00
57990;BME280;58373;51.824;5.564;2023-10-13T09:25:00;100403.34;;;18.15;100.00
57990;BME280;58373;51.824;5.564;2023-10-13T09:27:27;100401.91;;;18.13;100.00
57990;BME280;58373;51.824;5.564;2023-10-13T09:29:56;100405.16;;;18.15;100.00
57990;BME280;58373;51.824;5.564;2023-10-13T09:32:21;100399.91;;;18.15;100.00
57990;BME280;58373;51.824;5.564;2023-10-13T09:34:46;100399.72;;;18.16;100.00
57990;BME280;58373;51.824;5.564;2023-10-13T09:37:13;100395.91;;;18.19;100.00
57990;BME280;58373;51.824;5.564;2023-10-13T09:39:45;100395.34;;;18.23;100.00
57990;BME280;58373;51.824;5.564;2023-10-13T09:42:13;100392.53;;;18.25;100.00
57990;BME280;58373;51.824;5.564;2023-10-13T09:44:40;100392.81;;;18.30;100.00
57990;BME280;58373;51.824;5.564;2023-10-13T09:47:07;100396.84;;;18.33;100.00
57990;BME280;58373;51.824;5.564;2023-10-13T09:49:43;100387.97;;;18.34;100.00
57990;BME280;58373;51.824;5.564;2023-10-13T09:52:15;100397.31;;;18.36;100.00
57990;BME280;58373;51.824;5.564;2023-10-13T09:55:08;100390.06;;;18.38;100.00
57990;BME280;58373;51.824;5.564;2023-10-13T09:57:37;100391.31;;;18.42;100.00
57990;BME280;58373;51.824;5.564;2023-10-13T10:00:10;100378.44;;;18.47;100.00
57990;BME280;58373;51.824;5.564;2023-10-13T10:03:12;100372.38;;;18.47;100.00
57990;BME280;58373;51.824;5.564;2023-10-13T10:05:43;100366.13;;;18.48;100.00
57990;BME280;58373;51.824;5.564;2023-10-13T10:08:24;100373.00;;;18.49;100.00
57990;BME280;58373;51.824;5.564;2023-10-13T10:11:00;100372.44;;;18.53;100.00
57990;BME280;58373;51.824;5.564;2023-10-13T10:15:59;100349.03;;;18.58;100.00
57990;BME280;58373;51.824;5.564;2023-10-13T10:18:28;100357.16;;;18.64;100.00
57990;BME280;58373;51.824;5.564;2023-10-13T10:21:03;100355.53;;;18.63;100.00
57990;BME280;58373;51.824;5.564;2023-10-13T10:23:32;100348.44;;;18.63;100.00
57990;BME280;58373;51.824;5.564;2023-10-13T10:26:10;100349.66;;;18.61;100.00
57990;BME280;58373;51.824;5.564;2023-10-13T10:28:39;100353.91;;;18.62;100.00
57990;BME280;58373;51.824;5.564;2023-10-13T10:31:06;100343.41;;;18.62;100.00
57990;BME280;58373;51.824;5.564;2023-10-13T10:33:34;100346.84;;;18.62;100.00
57990;BME280;58373;51.824;5.564;2023-10-13T10:36:00;100338.75;;;18.64;100.00
57990;BME280;58373;51.824;5.564;2023-10-13T10:38:25;100331.88;;;18.63;100.00
57990;BME280;58373;51.824;5.564;2023-10-13T10:43:29;100331.81;;;18.71;100.00
57990;BME280;58373;51.824;5.564;2023-10-13T10:46:07;100331.81;;;18.71;100.00
57990;BME280;58373;51.824;5.564;2023-10-13T10:48:32;100326.16;;;18.74;100.00
57990;BME280;58373;51.824;5.564;2023-10-13T10:50:59;100311.03;;;18.76;100.00
57990;BME280;58373;51.824;5.564;2023-10-13T10:53:31;100312.25;;;18.80;100.00
57990;BME280;58373;51.824;5.564;2023-10-13T10:56:05;100323.00;;;18.85;100.00
57990;BME280;58373;51.824;5.564;2023-10-13T10:58:34;100310.50;;;18.87;100.00
57990;BME280;58373;51.824;5.564;2023-10-13T11:01:08;100291.13;;;18.95;100.00
57990;BME280;58373;51.824;5.564;2023-10-13T11:03:35;100298.44;;;18.99;100.00
57990;BME280;58373;51.824;5.564;2023-10-13T11:06:03;100312.00;;;19.03;100.00
57990;BME280;58373;51.824;5.564;2023-10-13T11:08:28;100306.97;;;19.08;99.40
57990;BME280;58373;51.824;5.564;2023-10-13T11:10:57;100311.44;;;19.07;100.00
57990;BME280;58373;51.824;5.564;2023-10-13T11:13:22;100288.00;;;19.13;97.89
57990;BME280;58373;51.824;5.564;2023-10-13T11:15:48;100278.09;;;19.15;97.22
57990;BME280;58373;51.824;5.564;2023-10-13T11:18:13;100288.44;;;19.16;96.22
57990;BME280;58373;51.824;5.564;2023-10-13T11:20:45;100275.47;;;19.15;95.51
57990;BME280;58373;51.824;5.564;2023-10-13T11:23:11;100286.66;;;19.23;93.75
57990;BME280;58373;51.824;5.564;2023-10-13T11:25:37;100274.47;;;19.16;92.83
57990;BME280;58373;51.824;5.564;2023-10-13T11:28:16;100260.13;;;19.18;93.11
57990;BME280;58373;51.824;5.564;2023-10-13T11:30:45;100266.63;;;19.22;93.55
57990;BME280;58373;51.824;5.564;2023-10-13T11:33:15;100277.13;;;19.16;93.48
57990;BME280;58373;51.824;5.564;2023-10-13T11:35:43;100267.81;;;19.20;93.89
57990;BME280;58373;51.824;5.564;2023-10-13T11:38:18;100270.84;;;19.17;94.00
57990;BME280;58373;51.824;5.564;2023-10-13T11:40:53;100270.22;;;19.15;94.02
57990;BME280;58373;51.824;5.564;2023-10-13T11:43:34;100254.44;;;19.15;93.97
57990;BME280;58373;51.824;5.564;2023-10-13T11:46:09;100256.06;;;19.16;94.02
57990;BME280;58373;51.824;5.564;2023-10-13T11:48:34;100243.91;;;19.15;93.71
57990;BME280;58373;51.824;5.564;2023-10-13T11:51:01;100244.56;;;19.17;94.07
57990;BME280;58373;51.824;5.564;2023-10-13T11:53:31;100241.50;;;19.20;94.14
57990;BME280;58373;51.824;5.564;2023-10-13T11:55:57;100241.13;;;19.23;93.98
57990;BME280;58373;51.824;5.564;2023-10-13T11:58:22;100248.03;;;19.30;93.46
57990;BME280;58373;51.824;5.564;2023-10-13T12:00:48;100252.13;;;19.33;94.67
57990;BME280;58373;51.824;5.564;2023-10-13T12:03:18;100229.47;;;19.39;94.97
57990;BME280;58373;51.824;5.564;2023-10-13T12:06:02;100238.00;;;19.47;94.17
57990;BME280;58373;51.824;5.564;2023-10-13T12:08:46;100228.28;;;19.54;94.51
57990;BME280;58373;51.824;5.564;2023-10-13T12:11:15;100226.28;;;19.56;93.54
57990;BME280;58373;51.824;5.564;2023-10-13T12:13:56;100238.06;;;19.60;93.67
57990;BME280;58373;51.824;5.564;2023-10-13T12:16:21;100228.75;;;19.65;93.32
57990;BME280;58373;51.824;5.564;2023-10-13T12:18:47;100227.56;;;19.67;92.99
57990;BME280;58373;51.824;5.564;2023-10-13T12:21:18;100240.53;;;19.75;92.17
57990;BME280;58373;51.824;5.564;2023-10-13T12:23:44;100230.81;;;19.76;91.20
57990;BME280;58373;51.824;5.564;2023-10-13T12:26:10;100239.94;;;19.80;90.34
57990;BME280;58373;51.824;5.564;2023-10-13T12:28:44;100221.09;;;19.83;89.62
57990;BME280;58373;51.824;5.564;2023-10-13T12:31:16;100227.38;;;19.82;88.99
57990;BME280;58373;51.824;5.564;2023-10-13T12:33:42;100236.88;;;19.83;88.60
57990;BME280;58373;51.824;5.564;2023-10-13T12:36:07;100229.63;;;19.85;88.68
57990;BME280;58373;51.824;5.564;2023-10-13T12:38:39;100224.34;;;19.85;88.55
57990;BME280;58373;51.824;5.564;2023-10-13T12:41:13;100223.72;;;19.83;88.52
57990;BME280;58373;51.824;5.564;2023-10-13T12:43:57;100217.44;;;19.84;88.09
57990;BME280;58373;51.824;5.564;2023-10-13T12:46:41;100221.09;;;19.83;88.29
57990;BME280;58373;51.824;5.564;2023-10-13T12:49:25;100205.31;;;19.83;88.12
57990;BME280;58373;51.824;5.564;2023-10-13T12:52:17;100211.38;;;19.83;87.27
57990;BME280;58373;51.824;5.564;2023-10-13T12:54:46;100211.81;;;19.87;87.22
57990;BME280;58373;51.824;5.564;2023-10-13T12:57:26;100226.78;;;19.93;86.67
57990;BME280;58373;51.824;5.564;2023-10-13T12:59:52;100211.41;;;19.97;86.28
57990;BME280;58373;51.824;5.564;2023-10-13T13:02:19;100219.91;;;20.05;84.47
57990;BME280;58373;51.824;5.564;2023-10-13T13:04:45;100212.63;;;20.07;85.24
57990;BME280;58373;51.824;5.564;2023-10-13T13:07:13;100203.31;;;20.05;85.16
57990;BME280;58373;51.824;5.564;2023-10-13T13:09:39;100208.56;;;20.05;84.30
57990;BME280;58373;51.824;5.564;2023-10-13T13:12:04;100204.53;;;20.02;85.67
57990;BME280;58373;51.824;5.564;2023-10-13T13:14:31;100202.88;;;20.01;85.27
57990;BME280;58373;51.824;5.564;2023-10-13T13:16:59;100194.41;;;19.99;85.17
57990;BME280;58373;51.824;5.564;2023-10-13T13:19:34;100192.97;;;20.16;83.05
57990;BME280;58373;51.824;5.564;2023-10-13T13:22:01;100209.38;;;20.05;83.96
57990;BME280;58373;51.824;5.564;2023-10-13T13:24:27;100199.28;;;20.02;84.17